createdAt,value
2023-02-02T12:45:37.280Z,4.57
2023-02-02T12:48:27.179Z,5.97
2023-02-02T12:51:20.947Z,10.30
2023-02-02T12:54:35.150Z,10.23
2023-02-02T12:57:30.079Z,10.88
2023-02-02T13:00:15.027Z,6.75
2023-02-02T13:02:50.994Z,8.75
2023-02-02T13:05:36.509Z,6.00
2023-02-02T13:08:32.399Z,6.45
2023-02-02T13:11:28.554Z,8.93
2023-02-02T13:14:17.539Z,6.50
2023-02-02T13:16:48.931Z,6.70
2023-02-02T13:19:38.636Z,5.55
2023-02-02T13:22:12.266Z,7.03
2023-02-02T13:24:42.769Z,7.55
2023-02-02T13:27:15.856Z,8.32
2023-02-02T13:29:57.703Z,10.20
2023-02-02T13:32:34.147Z,7.20
2023-02-02T13:35:33.562Z,7.18
2023-02-02T13:38:23.754Z,5.68
2023-02-02T13:40:53.654Z,9.75
2023-02-02T13:43:52.613Z,12.35
2023-02-02T13:46:46.181Z,8.98
2023-02-02T13:49:26.046Z,11.15
2023-02-02T13:52:20.428Z,9.25
2023-02-02T13:55:21.401Z,7.78
2023-02-02T13:57:58.078Z,5.65
2023-02-02T14:00:34.824Z,8.80
2023-02-02T14:03:06.197Z,5.75
2023-02-02T14:05:40.474Z,6.30
2023-02-02T14:08:19.343Z,7.93
2023-02-02T14:10:52.308Z,7.68
2023-02-02T14:13:43.608Z,6.95
2023-02-02T14:16:41.596Z,11.82
2023-02-02T14:19:35.208Z,6.80
2023-02-02T14:22:05.324Z,11.32
2023-02-02T14:24:35.595Z,10.90
2023-02-02T14:27:07.290Z,9.55
2023-02-02T14:29:37.630Z,12.15
2023-02-02T14:32:30.313Z,12.40
2023-02-02T14:37:44.111Z,14.18
2023-02-02T14:40:29.364Z,8.45
2023-02-02T14:43:33.689Z,10.10
2023-02-02T14:46:13.227Z,11.10
2023-02-02T14:48:47.233Z,7.68
2023-02-02T14:51:21.649Z,8.35
2023-02-02T14:54:04.946Z,6.30
2023-02-02T14:56:51.378Z,8.85
2023-02-02T14:59:40.008Z,9.13
2023-02-02T15:02:10.747Z,7.80
2023-02-02T15:04:38.181Z,6.50
2023-02-02T15:07:23.843Z,5.82
2023-02-02T15:09:51.901Z,5.50
2023-02-02T15:12:42.106Z,8.25
2023-02-02T15:15:30.308Z,8.00
2023-02-02T15:18:05.354Z,6.68
2023-02-02T15:20:54.110Z,8.25
2023-02-02T15:23:40.666Z,7.10
2023-02-02T15:26:30.984Z,7.43
2023-02-02T15:29:01.531Z,8.20
2023-02-02T15:31:43.031Z,9.68
2023-02-02T15:34:23.007Z,7.03
2023-02-02T15:36:54.128Z,6.28
2023-02-02T15:39:30.093Z,7.25
2023-02-02T15:42:17.490Z,6.85
2023-02-02T15:44:45.790Z,6.43
2023-02-02T15:47:25.220Z,7.70
2023-02-02T15:49:53.162Z,7.32
2023-02-02T15:52:26.004Z,6.22
2023-02-02T15:54:57.872Z,6.00
2023-02-02T15:57:34.928Z,7.35
2023-02-02T16:00:26.368Z,6.72
2023-02-02T16:03:15.107Z,6.32
2023-02-02T16:05:53.617Z,6.85
2023-02-02T16:08:34.388Z,7.88
2023-02-02T16:11:09.172Z,9.80
2023-02-02T16:13:40.726Z,7.90
2023-02-02T16:16:42.138Z,6.88
2023-02-02T16:19:29.908Z,7.25
2023-02-02T16:22:06.190Z,8.82
2023-02-02T16:24:48.125Z,7.53
2023-02-02T16:27:20.607Z,7.00
2023-02-02T16:29:49.389Z,9.82
2023-02-02T16:32:28.406Z,8.40
2023-02-02T16:34:56.067Z,8.23
2023-02-02T16:37:29.785Z,9.18
2023-02-02T16:40:15.943Z,10.82
2023-02-02T16:42:46.015Z,9.55
2023-02-02T16:45:46.047Z,10.52
2023-02-02T16:48:57.916Z,8.48
2023-02-02T16:51:32.866Z,10.10
2023-02-02T16:54:05.646Z,10.77
2023-02-02T16:56:38.000Z,10.13
2023-02-02T17:01:58.478Z,11.55
2023-02-02T17:04:29.102Z,11.85
2023-02-02T17:07:04.909Z,10.32
2023-02-02T17:09:42.687Z,11.13
2023-02-02T17:12:31.656Z,15.38
2023-02-02T17:15:05.243Z,12.93
2023-02-02T17:17:32.418Z,16.15
2023-02-02T17:19:59.367Z,21.05
2023-02-02T17:22:32.674Z,19.30
2023-02-02T17:24:59.932Z,21.13
2023-02-02T17:27:33.442Z,19.85
2023-02-02T17:30:03.185Z,18.95
2023-02-02T17:32:30.569Z,18.60
2023-02-02T17:34:57.777Z,18.55
2023-02-02T17:37:24.769Z,20.58
2023-02-02T17:39:51.807Z,21.60
2023-02-02T17:42:31.391Z,22.40
2023-02-02T17:45:00.881Z,22.02
2023-02-02T17:47:28.049Z,21.42
2023-02-02T17:49:55.337Z,19.05
2023-02-02T17:52:22.524Z,18.45
2023-02-02T17:54:49.535Z,20.10
2023-02-02T17:57:16.652Z,18.05
2023-02-02T17:59:46.342Z,18.85
2023-02-02T18:02:15.878Z,18.95
2023-02-02T18:04:45.467Z,19.00
2023-02-02T18:07:12.689Z,18.45
2023-02-02T18:09:39.661Z,17.52
2023-02-02T18:12:07.160Z,19.05
2023-02-02T18:14:34.221Z,16.73
2023-02-02T18:17:01.361Z,16.38
2023-02-02T18:19:31.298Z,14.50
2023-02-02T18:22:01.117Z,15.00
2023-02-02T18:24:28.543Z,16.00
2023-02-02T18:26:55.518Z,16.10
2023-02-02T18:29:22.789Z,13.52
2023-02-02T18:31:50.120Z,12.15
2023-02-02T18:34:17.378Z,16.02
2023-02-02T18:36:44.452Z,22.88
2023-02-02T18:39:11.625Z,13.77
2023-02-02T18:41:38.571Z,15.70
2023-02-02T18:44:05.856Z,16.88
2023-02-02T18:46:34.180Z,13.25
2023-02-02T18:49:01.292Z,15.90
2023-02-02T18:51:31.257Z,12.90
2023-02-02T18:54:01.468Z,13.25
2023-02-02T18:56:29.903Z,14.00
2023-02-02T18:58:59.417Z,12.13
2023-02-02T19:01:26.763Z,12.25
2023-02-02T19:03:57.254Z,13.18
2023-02-02T19:06:43.876Z,14.10
2023-02-02T19:09:11.386Z,12.80
2023-02-02T19:11:44.958Z,14.68
2023-02-02T19:14:19.619Z,14.70
2023-02-02T19:16:48.955Z,14.85
2023-02-02T19:19:40.437Z,11.00
2023-02-02T19:22:23.467Z,12.30
2023-02-02T19:24:51.117Z,17.40
2023-02-02T19:27:23.979Z,15.90
2023-02-02T19:29:56.617Z,13.50
2023-02-02T19:32:25.846Z,11.35
2023-02-02T19:34:54.815Z,11.25
2023-02-02T19:37:27.032Z,17.55
2023-02-02T19:40:01.192Z,13.80
2023-02-02T19:42:31.855Z,12.13
2023-02-02T19:44:59.041Z,17.48
2023-02-02T19:47:32.815Z,13.40
2023-02-02T19:50:15.767Z,11.68
2023-02-02T19:52:43.249Z,17.13
2023-02-02T19:55:33.402Z,11.38
2023-02-02T19:58:06.537Z,15.65
2023-02-02T20:00:37.006Z,12.98
2023-02-02T20:03:12.843Z,11.07
2023-02-02T20:05:45.037Z,12.10
2023-02-02T20:08:23.826Z,14.75
2023-02-02T20:10:52.555Z,10.43
2023-02-02T20:13:45.753Z,11.63
2023-02-02T20:16:19.090Z,12.27
2023-02-02T20:18:53.287Z,7.22
2023-02-02T20:21:34.658Z,9.70
2023-02-02T20:24:01.889Z,12.30
2023-02-02T20:26:39.308Z,12.32
2023-02-02T20:29:22.573Z,14.90
2023-02-02T20:31:53.100Z,12.52
2023-02-02T20:34:25.233Z,13.52
2023-02-02T20:37:01.253Z,10.38
2023-02-02T20:39:32.252Z,12.25
2023-02-02T20:41:59.513Z,11.93
2023-02-02T20:44:27.959Z,10.30
2023-02-02T20:46:56.294Z,9.05
2023-02-02T20:49:25.724Z,7.45
2023-02-02T20:51:59.623Z,8.95
2023-02-02T20:54:29.617Z,10.43
2023-02-02T20:56:56.703Z,7.85
2023-02-02T20:59:24.346Z,9.73
2023-02-02T21:01:52.609Z,11.88
2023-02-02T21:04:20.810Z,14.05
2023-02-02T21:06:48.950Z,10.32
2023-02-02T21:09:16.751Z,9.05
2023-02-02T21:11:44.781Z,12.75
2023-02-02T21:14:12.199Z,11.10
2023-02-02T21:16:39.560Z,10.63
2023-02-02T21:19:06.589Z,15.48
2023-02-02T21:21:33.619Z,8.43
2023-02-02T21:24:01.120Z,10.40
2023-02-02T21:26:30.920Z,12.82
2023-02-02T21:28:58.866Z,10.88
2023-02-02T21:31:26.777Z,10.60
2023-02-02T21:33:54.560Z,10.02
2023-02-02T21:36:33.526Z,8.00
2023-02-02T21:39:31.872Z,11.05
2023-02-02T21:42:08.172Z,9.57
2023-02-02T21:44:44.481Z,11.23
2023-02-02T21:47:37.048Z,10.55
2023-02-02T21:50:24.374Z,17.95
2023-02-02T21:52:52.971Z,8.02
2023-02-02T21:55:29.605Z,9.32
2023-02-02T21:57:59.286Z,8.32
2023-02-02T22:00:31.453Z,8.70
2023-02-02T22:02:59.085Z,8.65
2023-02-02T22:05:38.488Z,10.13
2023-02-02T22:08:22.881Z,10.57
2023-02-02T22:10:49.908Z,11.23
2023-02-02T22:13:23.004Z,10.30
2023-02-02T22:15:52.434Z,12.15
2023-02-02T22:18:21.698Z,14.32
2023-02-02T22:20:50.880Z,14.68
2023-02-02T22:23:24.105Z,11.05
2023-02-02T22:25:54.282Z,8.98
2023-02-02T22:28:22.818Z,12.68
2023-02-02T22:30:52.112Z,8.30
2023-02-02T22:33:19.740Z,9.27
2023-02-02T22:35:46.927Z,8.38
2023-02-02T22:38:21.286Z,8.85
2023-02-02T22:40:49.108Z,8.30
2023-02-02T22:43:17.547Z,10.70
2023-02-02T22:45:45.271Z,7.03
2023-02-02T22:48:13.679Z,9.32
2023-02-02T22:50:41.170Z,8.07
2023-02-02T22:53:08.566Z,10.20
2023-02-02T22:55:35.683Z,11.50
2023-02-02T22:58:02.627Z,8.77
2023-02-02T23:00:32.649Z,13.07
2023-02-02T23:02:59.879Z,11.32
2023-02-02T23:05:27.852Z,15.13
2023-02-02T23:07:55.404Z,8.43
2023-02-02T23:10:26.853Z,9.10
2023-02-02T23:12:59.044Z,12.13
2023-02-02T23:15:26.736Z,10.15
2023-02-02T23:17:54.399Z,9.98
2023-02-02T23:20:22.116Z,11.43
2023-02-02T23:22:49.543Z,10.27
2023-02-02T23:25:18.785Z,11.98
2023-02-02T23:27:46.191Z,9.20
2023-02-02T23:30:14.113Z,9.65
2023-02-02T23:32:42.005Z,9.90
2023-02-02T23:35:10.987Z,9.75
2023-02-02T23:37:38.557Z,10.57
2023-02-02T23:40:06.422Z,9.95
2023-02-02T23:42:33.999Z,9.10
2023-02-02T23:45:01.253Z,6.63
2023-02-02T23:47:31.937Z,10.98
2023-02-02T23:50:04.877Z,8.05
2023-02-02T23:52:33.672Z,10.60
2023-02-02T23:55:02.261Z,8.70
2023-02-02T23:57:29.668Z,11.45
2023-02-02T23:59:56.774Z,11.75
